EDT,Max TemperatureF,Mean TemperatureF,Min TemperatureF,Max Dew PointF,MeanDew PointF,Min DewpointF,Max Humidity, Mean Humidity, Min Humidity, Max Sea Level PressureIn, Mean Sea Level PressureIn, Min Sea Level PressureIn, Max VisibilityMiles, Mean VisibilityMiles, Min VisibilityMiles, Max Wind SpeedMPH, Mean Wind SpeedMPH, Max Gust SpeedMPH,PrecipitationIn, CloudCover, Events, WindDirDegrees
2013-9-1,87,79,70,73,72,69,94,78,61,29.86,29.82,29.78,10,8,4,7,4,9,0.11,5,Rain-Thunderstorm,166
2013-9-2,83,76,69,73,70,68,97,83,69,29.81,29.77,29.70,10,7,1,20,3,26,0.68,5,Rain,68
2013-9-3,80,71,61,68,63,55,97,70,42,29.93,29.80,29.74,10,6,0,15,5,21,0.00,3,Fog,282
2013-9-4,79,68,57,59,57,55,93,69,45,30.05,29.99,29.93,10,10,10,15,7,20,0.00,0,,258
2013-9-5,76,66,55,60,53,44,90,63,35,30.18,30.04,29.96,10,10,9,16,7,22,0.00,1,,303
2013-9-6,71,59,46,48,44,39,89,62,35,30.29,30.22,30.16,10,10,10,10,2,15,0.00,0,,18
2013-9-7,78,62,46,59,50,44,93,65,36,30.15,30.05,29.93,10,10,10,10,4,15,T,1,,248
2013-9-8,80,67,53,64,57,44,90,66,41,30.10,29.93,29.87,10,10,10,18,7,23,0.00,3,,313
2013-9-9,74,60,45,63,52,44,93,73,53,30.25,30.18,30.12,10,10,10,14,5,20,0.00,4,,171
2013-9-10,88,78,68,73,69,62,90,75,59,30.17,30.12,30.06,10,8,5,15,7,22,0.00,5,,217
2013-9-11,93,82,70,75,71,67,97,77,56,30.14,30.08,29.99,10,5,1,15,5,21,0.00,1,,227
2013-9-12,85,76,67,73,69,65,93,79,65,29.97,29.84,29.72,9,5,2,26,4,37,0.53,5,Rain,247
2013-9-13,74,65,55,65,56,46,93,71,49,29.91,29.76,29.68,10,10,4,22,7,30,T,4,,318
2013-9-14,61,52,43,47,45,42,86,71,55,30.17,30.04,29.92,10,10,10,18,7,23,0.00,5,,331
2013-9-15,72,57,41,53,46,40,96,67,38,30.24,30.17,30.09,10,10,6,12,3,15,0.00,0,,229
2013-9-16,71,61,50,57,52,44,93,70,47,30.28,30.12,30.05,10,9,5,17,5,21,0.08,6,Rain,329
2013-9-17,66,54,41,43,40,37,89,63,37,30.45,30.38,30.30,10,10,10,16,5,22,0.00,0,Rain,25
2013-9-18,71,56,40,47,43,38,93,67,40,30.37,30.29,30.20,10,10,10,10,2,15,0.00,0,,217
2013-9-19,76,59,42,52,47,40,93,63,33,30.21,30.16,30.08,10,9,1,10,2,14,0.00,0,,254
2013-9-20,79,63,47,58,52,45,93,68,42,30.10,30.05,29.98,10,8,2,13,3,17,0.00,0,,203
2013-9-21,78,65,52,64,58,51,93,70,47,29.99,29.82,29.69,10,8,2,17,6,23,0.68,4,Rain,187
2013-9-22,67,60,53,61,48,40,100,72,43,29.96,29.81,29.69,10,10,10,17,9,24,0.00,5,,311
2013-9-23,64,54,43,43,41,39,71,60,48,30.08,30.03,29.97,10,10,10,20,7,26,0.00,4,,338
2013-9-24,73,56,38,55,42,36,89,62,35,30.09,30.01,29.93,10,10,10,13,5,17,0.00,0,,314
2013-9-25,74,58,41,50,44,39,89,62,35,30.00,29.95,29.89,10,10,10,9,1,12,0.00,0,,332
2013-9-26,74,59,43,56,51,42,93,71,49,30.11,30.02,29.96,10,10,10,13,4,15,0.00,3,,65
2013-9-27,72,62,51,55,49,46,86,64,41,30.28,30.20,30.11,10,10,10,10,6,14,0.00,3,,72
2013-9-28,74,62,50,53,50,46,86,62,38,30.34,30.28,30.25,10,10,10,12,4,16,0.00,3,,77
2013-9-29,73,60,46,54,49,44,93,69,44,30.25,30.16,30.09,10,10,9,9,2,12,0.00,2,,54
2013-9-30,73,61,49,54,50,46,100,74,47,30.11,30.06,29.99,10,8,1,8,2,12,0.00,4,,177